sensor_id;sensor_type;location;lat;lon;timestamp;temperature;humidity
7814;DHT22;3952;48.364;16.022;2023-04-15T00:00:27;6.30;99.90
7814;DHT22;3952;48.364;16.022;2023-04-15T00:02:54;6.30;99.90
7814;DHT22;3952;48.364;16.022;2023-04-15T00:05:23;6.30;99.90
7814;DHT22;3952;48.364;16.022;2023-04-15T00:07:50;6.30;99.90
7814;DHT22;3952;48.364;16.022;2023-04-15T00:10:18;6.30;99.90
7814;DHT22;3952;48.364;16.022;2023-04-15T00:12:45;6.40;99.90
7814;DHT22;3952;48.364;16.022;2023-04-15T00:15:13;6.40;99.90
7814;DHT22;3952;48.364;16.022;2023-04-15T00:17:40;6.40;99.90
7814;DHT22;3952;48.364;16.022;2023-04-15T00:20:08;6.40;99.90
7814;DHT22;3952;48.364;16.022;2023-04-15T00:22:37;6.40;99.90
7814;DHT22;3952;48.364;16.022;2023-04-15T00:25:04;6.30;99.90
7814;DHT22;3952;48.364;16.022;2023-04-15T00:27:32;6.30;99.90
7814;DHT22;3952;48.364;16.022;2023-04-15T00:29:59;6.30;99.90
7814;DHT22;3952;48.364;16.022;2023-04-15T00:32:26;6.30;99.90
7814;DHT22;3952;48.364;16.022;2023-04-15T00:34:54;6.30;99.90
7814;DHT22;3952;48.364;16.022;2023-04-15T00:37:22;6.20;99.90
7814;DHT22;3952;48.364;16.022;2023-04-15T00:39:51;6.20;99.90
7814;DHT22;3952;48.364;16.022;2023-04-15T00:42:18;6.20;99.90
7814;DHT22;3952;48.364;16.022;2023-04-15T00:44:46;6.10;99.90
7814;DHT22;3952;48.364;16.022;2023-04-15T00:47:14;6.10;99.90
7814;DHT22;3952;48.364;16.022;2023-04-15T00:49:42;6.00;99.90
7814;DHT22;3952;48.364;16.022;2023-04-15T00:52:09;6.00;99.90
7814;DHT22;3952;48.364;16.022;2023-04-15T00:54:36;6.00;99.90
7814;DHT22;3952;48.364;16.022;2023-04-15T00:57:06;6.00;99.90
7814;DHT22;3952;48.364;16.022;2023-04-15T00:59:35;5.90;99.90
7814;DHT22;3952;48.364;16.022;2023-04-15T01:02:02;5.80;99.90
7814;DHT22;3952;48.364;16.022;2023-04-15T01:04:30;5.80;99.90
7814;DHT22;3952;48.364;16.022;2023-04-15T01:07:00;5.70;99.90
7814;DHT22;3952;48.364;16.022;2023-04-15T01:09:27;5.70;99.90
7814;DHT22;3952;48.364;16.022;2023-04-15T01:11:54;5.70;99.90
7814;DHT22;3952;48.364;16.022;2023-04-15T01:14:25;5.70;99.90
7814;DHT22;3952;48.364;16.022;2023-04-15T01:16:55;5.80;99.90
7814;DHT22;3952;48.364;16.022;2023-04-15T01:19:22;5.70;99.90
7814;DHT22;3952;48.364;16.022;2023-04-15T01:21:49;5.70;99.90
7814;DHT22;3952;48.364;16.022;2023-04-15T01:24:17;5.70;99.90
7814;DHT22;3952;48.364;16.022;2023-04-15T01:26:47;5.60;99.90
7814;DHT22;3952;48.364;16.022;2023-04-15T01:29:15;5.60;99.90
7814;DHT22;3952;48.364;16.022;2023-04-15T01:31:49;5.60;99.90
7814;DHT22;3952;48.364;16.022;2023-04-15T01:34:19;5.60;99.90
7814;DHT22;3952;48.364;16.022;2023-04-15T01:36:47;5.60;99.90
7814;DHT22;3952;48.364;16.022;2023-04-15T01:39:17;5.50;99.90
7814;DHT22;3952;48.364;16.022;2023-04-15T01:41:44;5.50;99.90
7814;DHT22;3952;48.364;16.022;2023-04-15T01:44:16;5.50;99.90
7814;DHT22;3952;48.364;16.022;2023-04-15T01:46:43;5.50;99.90
7814;DHT22;3952;48.364;16.022;2023-04-15T01:49:11;5.50;99.90
7814;DHT22;3952;48.364;16.022;2023-04-15T01:51:42;5.50;99.90
7814;DHT22;3952;48.364;16.022;2023-04-15T01:54:09;5.50;99.90
7814;DHT22;3952;48.364;16.022;2023-04-15T01:56:36;5.50;99.90
7814;DHT22;3952;48.364;16.022;2023-04-15T01:59:05;5.50;99.90
7814;DHT22;3952;48.364;16.022;2023-04-15T02:01:33;5.50;99.90
7814;DHT22;3952;48.364;16.022;2023-04-15T02:04:01;5.40;99.90
7814;DHT22;3952;48.364;16.022;2023-04-15T02:06:28;5.40;99.90
7814;DHT22;3952;48.364;16.022;2023-04-15T02:08:55;5.40;99.90
7814;DHT22;3952;48.364;16.022;2023-04-15T02:11:23;5.40;99.90
7814;DHT22;3952;48.364;16.022;2023-04-15T02:13:53;5.40;99.90
7814;DHT22;3952;48.364;16.022;2023-04-15T02:16:23;5.40;99.90
7814;DHT22;3952;48.364;16.022;2023-04-15T02:19:00;5.40;99.90
7814;DHT22;3952;48.364;16.022;2023-04-15T02:21:29;5.40;99.90
7814;DHT22;3952;48.364;16.022;2023-04-15T02:24:00;5.40;99.90
7814;DHT22;3952;48.364;16.022;2023-04-15T02:26:27;5.40;99.90
7814;DHT22;3952;48.364;16.022;2023-04-15T02:29:03;5.40;99.90
7814;DHT22;3952;48.364;16.022;2023-04-15T02:31:43;5.40;99.90
7814;DHT22;3952;48.364;16.022;2023-04-15T02:34:11;5.40;99.90
7814;DHT22;3952;48.364;16.022;2023-04-15T02:36:44;5.40;99.90
7814;DHT22;3952;48.364;16.022;2023-04-15T02:39:14;5.40;99.90
7814;DHT22;3952;48.364;16.022;2023-04-15T02:41:43;5.40;99.90
7814;DHT22;3952;48.364;16.022;2023-04-15T02:44:12;5.40;99.90
7814;DHT22;3952;48.364;16.022;2023-04-15T02:46:39;5.40;99.90
7814;DHT22;3952;48.364;16.022;2023-04-15T02:49:14;5.50;99.90
7814;DHT22;3952;48.364;16.022;2023-04-15T02:51:41;5.50;99.90
7814;DHT22;3952;48.364;16.022;2023-04-15T02:54:08;5.50;99.90
7814;DHT22;3952;48.364;16.022;2023-04-15T02:56:38;5.50;99.90
7814;DHT22;3952;48.364;16.022;2023-04-15T02:59:06;5.50;99.90
7814;DHT22;3952;48.364;16.022;2023-04-15T03:01:33;5.50;99.90
7814;DHT22;3952;48.364;16.022;2023-04-15T03:04:00;5.50;99.90
7814;DHT22;3952;48.364;16.022;2023-04-15T03:06:29;5.50;99.90
7814;DHT22;3952;48.364;16.022;2023-04-15T03:08:56;5.50;99.90
7814;DHT22;3952;48.364;16.022;2023-04-15T03:11:25;5.50;99.90
7814;DHT22;3952;48.364;16.022;2023-04-15T03:13:52;5.50;99.90
7814;DHT22;3952;48.364;16.022;2023-04-15T03:16:20;5.50;99.90
7814;DHT22;3952;48.364;16.022;2023-04-15T03:18:47;5.60;99.90
7814;DHT22;3952;48.364;16.022;2023-04-15T03:21:14;5.60;99.90
7814;DHT22;3952;48.364;16.022;2023-04-15T03:23:43;5.60;99.90
7814;DHT22;3952;48.364;16.022;2023-04-15T03:26:23;5.70;99.90
7814;DHT22;3952;48.364;16.022;2023-04-15T03:28:52;5.70;99.90
7814;DHT22;3952;48.364;16.022;2023-04-15T03:31:19;5.70;99.90
7814;DHT22;3952;48.364;16.022;2023-04-15T03:33:46;5.60;99.90
7814;DHT22;3952;48.364;16.022;2023-04-15T03:36:13;5.60;99.90
7814;DHT22;3952;48.364;16.022;2023-04-15T03:38:42;5.60;99.90
7814;DHT22;3952;48.364;16.022;2023-04-15T03:41:10;5.60;99.90
7814;DHT22;3952;48.364;16.022;2023-04-15T03:43:37;5.60;99.90
7814;DHT22;3952;48.364;16.022;2023-04-15T03:46:04;5.60;99.90
7814;DHT22;3952;48.364;16.022;2023-04-15T03:48:32;5.60;99.90
7814;DHT22;3952;48.364;16.022;2023-04-15T03:50:59;5.50;99.90
7814;DHT22;3952;48.364;16.022;2023-04-15T03:53:26;5.50;99.90
7814;DHT22;3952;48.364;16.022;2023-04-15T03:55:55;5.50;99.90
7814;DHT22;3952;48.364;16.022;2023-04-15T03:58:22;5.50;99.90
7814;DHT22;3952;48.364;16.022;2023-04-15T04:00:50;5.40;99.90
7814;DHT22;3952;48.364;16.022;2023-04-15T04:03:17;5.40;99.90
7814;DHT22;3952;48.364;16.022;2023-04-15T04:05:46;5.40;99.90
7814;DHT22;3952;48.364;16.022;2023-04-15T04:08:14;5.40;99.90
7814;DHT22;3952;48.364;16.022;2023-04-15T04:10:42;5.40;99.90
7814;DHT22;3952;48.364;16.022;2023-04-15T04:13:10;5.30;99.90
7814;DHT22;3952;48.364;16.022;2023-04-15T04:15:37;5.30;99.90
7814;DHT22;3952;48.364;16.022;2023-04-15T04:18:05;5.30;99.90
7814;DHT22;3952;48.364;16.022;2023-04-15T04:20:33;5.30;99.90
7814;DHT22;3952;48.364;16.022;2023-04-15T04:23:00;5.30;99.90
7814;DHT22;3952;48.364;16.022;2023-04-15T04:25:27;5.30;99.90
7814;DHT22;3952;48.364;16.022;2023-04-15T04:27:55;5.30;99.90
7814;DHT22;3952;48.364;16.022;2023-04-15T04:30:23;5.30;99.90
7814;DHT22;3952;48.364;16.022;2023-04-15T04:32:51;5.30;99.90
7814;DHT22;3952;48.364;16.022;2023-04-15T04:35:18;5.30;99.90
7814;DHT22;3952;48.364;16.022;2023-04-15T04:37:46;5.30;99.90
7814;DHT22;3952;48.364;16.022;2023-04-15T04:40:22;5.20;99.90
7814;DHT22;3952;48.364;16.022;2023-04-15T04:42:50;5.20;99.90
7814;DHT22;3952;48.364;16.022;2023-04-15T04:45:17;5.10;99.90
7814;DHT22;3952;48.364;16.022;2023-04-15T04:47:56;5.10;99.90
7814;DHT22;3952;48.364;16.022;2023-04-15T04:50:24;5.10;99.90
7814;DHT22;3952;48.364;16.022;2023-04-15T04:52:51;5.10;99.90
7814;DHT22;3952;48.364;16.022;2023-04-15T04:55:19;5.10;99.90
7814;DHT22;3952;48.364;16.022;2023-04-15T04:57:46;5.00;99.90
7814;DHT22;3952;48.364;16.022;2023-04-15T05:00:22;5.00;99.90
7814;DHT22;3952;48.364;16.022;2023-04-15T05:02:51;5.00;99.90
7814;DHT22;3952;48.364;16.022;2023-04-15T05:05:19;5.00;99.90
7814;DHT22;3952;48.364;16.022;2023-04-15T05:07:46;5.00;99.90
7814;DHT22;3952;48.364;16.022;2023-04-15T05:10:15;5.00;99.90
7814;DHT22;3952;48.364;16.022;2023-04-15T05:12:43;5.00;99.90
7814;DHT22;3952;48.364;16.022;2023-04-15T05:15:11;5.00;99.90
7814;DHT22;3952;48.364;16.022;2023-04-15T05:17:38;5.00;99.90
7814;DHT22;3952;48.364;16.022;2023-04-15T05:20:11;5.10;99.90
7814;DHT22;3952;48.364;16.022;2023-04-15T05:22:41;5.10;99.90
7814;DHT22;3952;48.364;16.022;2023-04-15T05:25:08;5.00;99.90
7814;DHT22;3952;48.364;16.022;2023-04-15T05:27:43;5.00;99.90
7814;DHT22;3952;48.364;16.022;2023-04-15T05:30:11;5.00;99.90
7814;DHT22;3952;48.364;16.022;2023-04-15T05:32:38;5.00;99.90
7814;DHT22;3952;48.364;16.022;2023-04-15T05:35:09;5.00;99.90
7814;DHT22;3952;48.364;16.022;2023-04-15T05:37:37;5.00;99.90
7814;DHT22;3952;48.364;16.022;2023-04-15T05:40:05;5.00;99.90
7814;DHT22;3952;48.364;16.022;2023-04-15T05:42:33;5.00;99.90
7814;DHT22;3952;48.364;16.022;2023-04-15T05:45:01;5.00;99.90
7814;DHT22;3952;48.364;16.022;2023-04-15T05:47:30;5.00;99.90
7814;DHT22;3952;48.364;16.022;2023-04-15T05:49:57;5.10;99.90
7814;DHT22;3952;48.364;16.022;2023-04-15T05:52:26;5.10;99.90
7814;DHT22;3952;48.364;16.022;2023-04-15T05:54:53;5.10;99.90
7814;DHT22;3952;48.364;16.022;2023-04-15T05:57:20;5.10;99.90
7814;DHT22;3952;48.364;16.022;2023-04-15T05:59:48;5.10;99.90
7814;DHT22;3952;48.364;16.022;2023-04-15T06:02:17;5.10;99.90
7814;DHT22;3952;48.364;16.022;2023-04-15T06:04:44;5.10;99.90
7814;DHT22;3952;48.364;16.022;2023-04-15T06:07:12;5.10;99.90
7814;DHT22;3952;48.364;16.022;2023-04-15T06:09:40;5.10;99.90
7814;DHT22;3952;48.364;16.022;2023-04-15T06:12:08;5.10;99.90
7814;DHT22;3952;48.364;16.022;2023-04-15T06:14:37;5.00;99.90
7814;DHT22;3952;48.364;16.022;2023-04-15T06:17:10;5.10;99.90
7814;DHT22;3952;48.364;16.022;2023-04-15T06:19:45;5.10;99.90
7814;DHT22;3952;48.364;16.022;2023-04-15T06:22:19;5.10;99.90
7814;DHT22;3952;48.364;16.022;2023-04-15T06:24:48;5.10;99.90
7814;DHT22;3952;48.364;16.022;2023-04-15T06:27:18;5.10;99.90
7814;DHT22;3952;48.364;16.022;2023-04-15T06:29:47;5.10;99.90
7814;DHT22;3952;48.364;16.022;2023-04-15T06:32:14;5.10;99.90
7814;DHT22;3952;48.364;16.022;2023-04-15T06:34:42;5.10;99.90
7814;DHT22;3952;48.364;16.022;2023-04-15T06:37:11;5.20;99.90
7814;DHT22;3952;48.364;16.022;2023-04-15T06:39:41;5.10;99.90
7814;DHT22;3952;48.364;16.022;2023-04-15T06:42:10;5.10;99.90
7814;DHT22;3952;48.364;16.022;2023-04-15T06:44:38;5.10;99.90
7814;DHT22;3952;48.364;16.022;2023-04-15T06:47:05;5.10;99.90
7814;DHT22;3952;48.364;16.022;2023-04-15T06:49:33;5.10;99.90
7814;DHT22;3952;48.364;16.022;2023-04-15T06:52:01;5.10;99.90
7814;DHT22;3952;48.364;16.022;2023-04-15T06:54:29;5.10;99.90
7814;DHT22;3952;48.364;16.022;2023-04-15T06:56:59;5.10;99.90
7814;DHT22;3952;48.364;16.022;2023-04-15T06:59:27;4.80;99.90
7814;DHT22;3952;48.364;16.022;2023-04-15T07:01:55;5.10;99.90
7814;DHT22;3952;48.364;16.022;2023-04-15T07:04:24;5.20;99.90
7814;DHT22;3952;48.364;16.022;2023-04-15T07:06:52;5.20;99.90
7814;DHT22;3952;48.364;16.022;2023-04-15T07:09:23;5.20;99.90
7814;DHT22;3952;48.364;16.022;2023-04-15T07:11:51;5.30;99.90
7814;DHT22;3952;48.364;16.022;2023-04-15T07:14:18;5.30;99.90
7814;DHT22;3952;48.364;16.022;2023-04-15T07:16:47;5.30;99.90
7814;DHT22;3952;48.364;16.022;2023-04-15T07:19:15;5.30;99.90
7814;DHT22;3952;48.364;16.022;2023-04-15T07:21:42;5.30;99.90
7814;DHT22;3952;48.364;16.022;2023-04-15T07:24:12;5.40;99.90
7814;DHT22;3952;48.364;16.022;2023-04-15T07:26:41;5.40;99.90
7814;DHT22;3952;48.364;16.022;2023-04-15T07:29:09;5.40;99.90
7814;DHT22;3952;48.364;16.022;2023-04-15T07:31:38;5.40;99.90
7814;DHT22;3952;48.364;16.022;2023-04-15T07:34:07;5.50;99.90
7814;DHT22;3952;48.364;16.022;2023-04-15T07:36:34;5.50;99.90
7814;DHT22;3952;48.364;16.022;2023-04-15T07:39:02;5.50;99.90
7814;DHT22;3952;48.364;16.022;2023-04-15T07:41:30;5.50;99.90
7814;DHT22;3952;48.364;16.022;2023-04-15T07:43:58;5.50;99.90
7814;DHT22;3952;48.364;16.022;2023-04-15T07:46:25;5.50;99.90
7814;DHT22;3952;48.364;16.022;2023-04-15T07:48:53;5.50;99.90
7814;DHT22;3952;48.364;16.022;2023-04-15T07:51:22;5.50;99.90
7814;DHT22;3952;48.364;16.022;2023-04-15T07:53:49;5.60;99.90
7814;DHT22;3952;48.364;16.022;2023-04-15T07:56:19;5.60;99.90
7814;DHT22;3952;48.364;16.022;2023-04-15T07:58:47;5.60;99.90
7814;DHT22;3952;48.364;16.022;2023-04-15T08:01:14;5.60;99.90
7814;DHT22;3952;48.364;16.022;2023-04-15T08:03:41;5.60;99.90
7814;DHT22;3952;48.364;16.022;2023-04-15T08:06:09;5.70;99.90
7814;DHT22;3952;48.364;16.022;2023-04-15T08:08:38;5.70;99.90
7814;DHT22;3952;48.364;16.022;2023-04-15T08:11:06;5.60;99.90
7814;DHT22;3952;48.364;16.022;2023-04-15T08:13:33;5.60;99.90
7814;DHT22;3952;48.364;16.022;2023-04-15T08:16:18;5.80;99.90
7814;DHT22;3952;48.364;16.022;2023-04-15T08:18:46;5.80;99.90
7814;DHT22;3952;48.364;16.022;2023-04-15T08:21:14;5.80;99.90
7814;DHT22;3952;48.364;16.022;2023-04-15T08:23:50;5.80;99.90
7814;DHT22;3952;48.364;16.022;2023-04-15T08:26:18;5.80;99.90
7814;DHT22;3952;48.364;16.022;2023-04-15T08:28:46;5.90;99.90
7814;DHT22;3952;48.364;16.022;2023-04-15T08:31:15;5.90;99.90
7814;DHT22;3952;48.364;16.022;2023-04-15T08:33:42;5.90;99.90
7814;DHT22;3952;48.364;16.022;2023-04-15T08:36:09;5.90;99.90
7814;DHT22;3952;48.364;16.022;2023-04-15T08:38:38;5.90;99.90
7814;DHT22;3952;48.364;16.022;2023-04-15T08:41:13;5.90;99.90
7814;DHT22;3952;48.364;16.022;2023-04-15T08:43:48;5.90;99.90
7814;DHT22;3952;48.364;16.022;2023-04-15T08:46:18;6.00;99.90
7814;DHT22;3952;48.364;16.022;2023-04-15T08:48:47;6.00;99.90
7814;DHT22;3952;48.364;16.022;2023-04-15T08:51:15;6.00;99.90
7814;DHT22;3952;48.364;16.022;2023-04-15T08:53:44;6.10;99.90
7814;DHT22;3952;48.364;16.022;2023-04-15T08:56:15;6.10;99.90
7814;DHT22;3952;48.364;16.022;2023-04-15T08:58:44;6.30;99.90
7814;DHT22;3952;48.364;16.022;2023-04-15T09:01:11;6.30;99.90
7814;DHT22;3952;48.364;16.022;2023-04-15T09:03:39;6.40;99.90
7814;DHT22;3952;48.364;16.022;2023-04-15T09:06:08;6.40;99.90
7814;DHT22;3952;48.364;16.022;2023-04-15T09:08:35;6.50;99.90
7814;DHT22;3952;48.364;16.022;2023-04-15T09:11:02;6.50;99.90
7814;DHT22;3952;48.364;16.022;2023-04-15T09:13:31;6.50;99.90
7814;DHT22;3952;48.364;16.022;2023-04-15T09:16:01;6.50;99.90
7814;DHT22;3952;48.364;16.022;2023-04-15T09:18:30;6.50;99.90
7814;DHT22;3952;48.364;16.022;2023-04-15T09:21:04;6.60;99.90
7814;DHT22;3952;48.364;16.022;2023-04-15T09:23:34;6.60;99.90
7814;DHT22;3952;48.364;16.022;2023-04-15T09:26:01;6.70;99.90
7814;DHT22;3952;48.364;16.022;2023-04-15T09:28:28;6.70;99.90
7814;DHT22;3952;48.364;16.022;2023-04-15T09:30:58;6.80;99.90
7814;DHT22;3952;48.364;16.022;2023-04-15T09:33:27;6.80;99.90
7814;DHT22;3952;48.364;16.022;2023-04-15T09:35:59;6.80;99.90
7814;DHT22;3952;48.364;16.022;2023-04-15T09:38:27;6.80;99.90
7814;DHT22;3952;48.364;16.022;2023-04-15T09:40:56;6.80;99.90
7814;DHT22;3952;48.364;16.022;2023-04-15T09:43:36;6.80;99.90
7814;DHT22;3952;48.364;16.022;2023-04-15T09:46:05;6.80;99.90
7814;DHT22;3952;48.364;16.022;2023-04-15T09:48:32;6.80;99.90
7814;DHT22;3952;48.364;16.022;2023-04-15T09:51:00;6.70;99.90
7814;DHT22;3952;48.364;16.022;2023-04-15T09:53:27;6.70;99.90
7814;DHT22;3952;48.364;16.022;2023-04-15T09:55:56;6.80;99.90
7814;DHT22;3952;48.364;16.022;2023-04-15T09:58:26;6.80;99.90
7814;DHT22;3952;48.364;16.022;2023-04-15T10:00:54;6.80;99.90
7814;DHT22;3952;48.364;16.022;2023-04-15T10:03:24;6.90;99.90
7814;DHT22;3952;48.364;16.022;2023-04-15T10:05:55;6.90;99.90
7814;DHT22;3952;48.364;16.022;2023-04-15T10:08:23;6.90;99.90
7814;DHT22;3952;48.364;16.022;2023-04-15T10:10:51;6.90;99.90
7814;DHT22;3952;48.364;16.022;2023-04-15T10:13:20;6.90;99.90
7814;DHT22;3952;48.364;16.022;2023-04-15T10:15:50;6.90;99.90
7814;DHT22;3952;48.364;16.022;2023-04-15T10:18:19;6.90;99.90
7814;DHT22;3952;48.364;16.022;2023-04-15T10:20:49;6.90;99.90
7814;DHT22;3952;48.364;16.022;2023-04-15T10:23:17;6.90;99.90
7814;DHT22;3952;48.364;16.022;2023-04-15T10:25:45;6.90;99.90
7814;DHT22;3952;48.364;16.022;2023-04-15T10:28:14;6.90;99.90
7814;DHT22;3952;48.364;16.022;2023-04-15T10:30:42;6.90;99.90
7814;DHT22;3952;48.364;16.022;2023-04-15T10:33:10;7.00;99.90
7814;DHT22;3952;48.364;16.022;2023-04-15T10:35:38;7.00;99.90
7814;DHT22;3952;48.364;16.022;2023-04-15T10:38:36;7.00;99.90
7814;DHT22;3952;48.364;16.022;2023-04-15T10:41:17;7.00;99.90
7814;DHT22;3952;48.364;16.022;2023-04-15T10:43:48;7.00;99.90
7814;DHT22;3952;48.364;16.022;2023-04-15T10:46:21;7.10;99.90
7814;DHT22;3952;48.364;16.022;2023-04-15T10:48:50;7.10;99.90
7814;DHT22;3952;48.364;16.022;2023-04-15T10:51:26;7.00;99.90
7814;DHT22;3952;48.364;16.022;2023-04-15T10:53:58;7.00;99.90
7814;DHT22;3952;48.364;16.022;2023-04-15T10:56:27;7.00;99.90
7814;DHT22;3952;48.364;16.022;2023-04-15T10:58:55;7.00;99.90
7814;DHT22;3952;48.364;16.022;2023-04-15T11:01:50;7.00;99.90
7814;DHT22;3952;48.364;16.022;2023-04-15T11:04:51;7.10;99.90
7814;DHT22;3952;48.364;16.022;2023-04-15T11:07:33;7.10;99.90
7814;DHT22;3952;48.364;16.022;2023-04-15T11:10:03;7.10;99.90
7814;DHT22;3952;48.364;16.022;2023-04-15T11:12:34;7.20;99.90
7814;DHT22;3952;48.364;16.022;2023-04-15T11:15:26;7.20;99.90
7814;DHT22;3952;48.364;16.022;2023-04-15T11:17:54;7.10;99.90
7814;DHT22;3952;48.364;16.022;2023-04-15T11:20:22;7.10;99.90
7814;DHT22;3952;48.364;16.022;2023-04-15T11:22:50;7.10;99.90
7814;DHT22;3952;48.364;16.022;2023-04-15T11:25:25;7.10;99.90
7814;DHT22;3952;48.364;16.022;2023-04-15T11:27:53;7.10;99.90
7814;DHT22;3952;48.364;16.022;2023-04-15T11:30:23;7.20;99.90
7814;DHT22;3952;48.364;16.022;2023-04-15T11:32:51;7.10;99.90
7814;DHT22;3952;48.364;16.022;2023-04-15T11:35:19;7.10;99.90
7814;DHT22;3952;48.364;16.022;2023-04-15T11:37:48;7.10;99.90
7814;DHT22;3952;48.364;16.022;2023-04-15T11:40:15;7.00;99.90
7814;DHT22;3952;48.364;16.022;2023-04-15T11:42:44;7.10;99.90
7814;DHT22;3952;48.364;16.022;2023-04-15T11:45:13;7.10;99.90
7814;DHT22;3952;48.364;16.022;2023-04-15T11:47:41;7.10;99.90
7814;DHT22;3952;48.364;16.022;2023-04-15T11:50:15;7.10;99.90
7814;DHT22;3952;48.364;16.022;2023-04-15T11:52:52;7.20;99.90
7814;DHT22;3952;48.364;16.022;2023-04-15T11:55:19;7.30;99.90
7814;DHT22;3952;48.364;16.022;2023-04-15T11:57:49;7.30;99.90
7814;DHT22;3952;48.364;16.022;2023-04-15T12:00:16;7.30;99.90
7814;DHT22;3952;48.364;16.022;2023-04-15T12:02:46;7.40;99.90
7814;DHT22;3952;48.364;16.022;2023-04-15T12:05:13;7.40;99.90
7814;DHT22;3952;48.364;16.022;2023-04-15T12:07:59;7.40;99.90
7814;DHT22;3952;48.364;16.022;2023-04-15T12:10:26;7.40;99.90
7814;DHT22;3952;48.364;16.022;2023-04-15T12:12:55;7.50;99.90
7814;DHT22;3952;48.364;16.022;2023-04-15T12:15:23;7.50;99.90
7814;DHT22;3952;48.364;16.022;2023-04-15T12:17:53;7.60;99.90
7814;DHT22;3952;48.364;16.022;2023-04-15T12:20:24;7.70;99.90
7814;DHT22;3952;48.364;16.022;2023-04-15T12:22:52;7.70;99.90
7814;DHT22;3952;48.364;16.022;2023-04-15T12:25:19;7.70;99.90
7814;DHT22;3952;48.364;16.022;2023-04-15T12:28:00;7.70;99.90
7814;DHT22;3952;48.364;16.022;2023-04-15T12:30:27;7.80;99.90
7814;DHT22;3952;48.364;16.022;2023-04-15T12:32:54;7.80;99.90
7814;DHT22;3952;48.364;16.022;2023-04-15T12:35:24;7.90;99.90
7814;DHT22;3952;48.364;16.022;2023-04-15T12:37:51;7.80;99.90
7814;DHT22;3952;48.364;16.022;2023-04-15T12:40:19;7.90;99.90
7814;DHT22;3952;48.364;16.022;2023-04-15T12:42:46;7.80;99.90
7814;DHT22;3952;48.364;16.022;2023-04-15T12:45:15;7.90;99.90
7814;DHT22;3952;48.364;16.022;2023-04-15T12:47:42;7.90;99.90
7814;DHT22;3952;48.364;16.022;2023-04-15T12:50:09;7.90;99.90
7814;DHT22;3952;48.364;16.022;2023-04-15T12:52:36;7.90;99.90
7814;DHT22;3952;48.364;16.022;2023-04-15T12:55:05;8.00;99.90
7814;DHT22;3952;48.364;16.022;2023-04-15T12:57:32;8.10;99.90
7814;DHT22;3952;48.364;16.022;2023-04-15T12:59:59;8.10;99.90
7814;DHT22;3952;48.364;16.022;2023-04-15T13:02:28;8.20;99.90
7814;DHT22;3952;48.364;16.022;2023-04-15T13:04:56;8.20;99.90
7814;DHT22;3952;48.364;16.022;2023-04-15T13:07:23;8.20;99.90
7814;DHT22;3952;48.364;16.022;2023-04-15T13:09:50;8.20;99.90
7814;DHT22;3952;48.364;16.022;2023-04-15T13:12:17;8.20;99.90
7814;DHT22;3952;48.364;16.022;2023-04-15T13:14:44;8.20;99.90
7814;DHT22;3952;48.364;16.022;2023-04-15T13:17:11;8.20;99.90
7814;DHT22;3952;48.364;16.022;2023-04-15T13:19:40;8.20;99.90
7814;DHT22;3952;48.364;16.022;2023-04-15T13:22:07;8.30;99.90
7814;DHT22;3952;48.364;16.022;2023-04-15T13:24:34;8.30;99.90
7814;DHT22;3952;48.364;16.022;2023-04-15T13:27:02;8.30;99.90
7814;DHT22;3952;48.364;16.022;2023-04-15T13:29:29;9.10;99.90
7814;DHT22;3952;48.364;16.022;2023-04-15T13:31:57;8.20;99.90
7814;DHT22;3952;48.364;16.022;2023-04-15T13:34:26;8.20;99.90
7814;DHT22;3952;48.364;16.022;2023-04-15T13:36:54;8.10;99.90
7814;DHT22;3952;48.364;16.022;2023-04-15T13:39:21;8.00;99.90
7814;DHT22;3952;48.364;16.022;2023-04-15T13:41:48;8.00;99.90
7814;DHT22;3952;48.364;16.022;2023-04-15T13:44:16;8.10;99.90
7814;DHT22;3952;48.364;16.022;2023-04-15T13:46:43;8.20;99.90
7814;DHT22;3952;48.364;16.022;2023-04-15T13:49:10;8.20;99.90
7814;DHT22;3952;48.364;16.022;2023-04-15T13:51:37;8.30;99.90
7814;DHT22;3952;48.364;16.022;2023-04-15T13:54:06;8.20;99.90
7814;DHT22;3952;48.364;16.022;2023-04-15T13:56:34;8.30;99.90
7814;DHT22;3952;48.364;16.022;2023-04-15T13:59:01;8.40;99.90
7814;DHT22;3952;48.364;16.022;2023-04-15T14:01:28;8.50;99.90
7814;DHT22;3952;48.364;16.022;2023-04-15T14:03:56;8.50;99.90
7814;DHT22;3952;48.364;16.022;2023-04-15T14:06:23;8.60;99.90
7814;DHT22;3952;48.364;16.022;2023-04-15T14:08:52;8.60;99.90
7814;DHT22;3952;48.364;16.022;2023-04-15T14:11:20;8.60;99.90
7814;DHT22;3952;48.364;16.022;2023-04-15T14:13:47;8.60;99.90
7814;DHT22;3952;48.364;16.022;2023-04-15T14:16:15;8.70;99.90
7814;DHT22;3952;48.364;16.022;2023-04-15T14:18:42;8.70;99.90
7814;DHT22;3952;48.364;16.022;2023-04-15T14:21:10;8.70;99.90
7814;DHT22;3952;48.364;16.022;2023-04-15T14:23:37;8.70;99.90
7814;DHT22;3952;48.364;16.022;2023-04-15T14:26:05;8.80;99.90
7814;DHT22;3952;48.364;16.022;2023-04-15T14:28:33;8.70;99.90
7814;DHT22;3952;48.364;16.022;2023-04-15T14:31:03;8.70;99.90
7814;DHT22;3952;48.364;16.022;2023-04-15T14:33:30;8.70;99.90
7814;DHT22;3952;48.364;16.022;2023-04-15T14:35:57;8.60;99.90
7814;DHT22;3952;48.364;16.022;2023-04-15T14:38:25;8.70;99.90
7814;DHT22;3952;48.364;16.022;2023-04-15T14:40:52;8.70;99.90
7814;DHT22;3952;48.364;16.022;2023-04-15T14:43:19;8.80;99.90
7814;DHT22;3952;48.364;16.022;2023-04-15T14:45:48;8.80;99.90
7814;DHT22;3952;48.364;16.022;2023-04-15T14:48:16;8.70;99.90
7814;DHT22;3952;48.364;16.022;2023-04-15T14:50:43;8.80;99.90
7814;DHT22;3952;48.364;16.022;2023-04-15T14:53:11;8.80;99.90
7814;DHT22;3952;48.364;16.022;2023-04-15T14:55:38;8.80;99.90
7814;DHT22;3952;48.364;16.022;2023-04-15T14:58:05;8.80;99.90
7814;DHT22;3952;48.364;16.022;2023-04-15T15:00:34;8.80;99.90
7814;DHT22;3952;48.364;16.022;2023-04-15T15:03:05;8.80;99.90
7814;DHT22;3952;48.364;16.022;2023-04-15T15:05:37;8.80;99.90
7814;DHT22;3952;48.364;16.022;2023-04-15T15:08:05;8.70;99.90
7814;DHT22;3952;48.364;16.022;2023-04-15T15:10:32;8.70;99.90
7814;DHT22;3952;48.364;16.022;2023-04-15T15:13:01;8.70;99.90
7814;DHT22;3952;48.364;16.022;2023-04-15T15:15:28;8.70;99.90
7814;DHT22;3952;48.364;16.022;2023-04-15T15:17:55;8.70;99.90
7814;DHT22;3952;48.364;16.022;2023-04-15T15:20:24;8.70;99.90
7814;DHT22;3952;48.364;16.022;2023-04-15T15:22:51;8.70;99.90
7814;DHT22;3952;48.364;16.022;2023-04-15T15:25:19;8.60;99.90
7814;DHT22;3952;48.364;16.022;2023-04-15T15:27:47;8.50;99.90
7814;DHT22;3952;48.364;16.022;2023-04-15T15:30:14;8.50;99.90
7814;DHT22;3952;48.364;16.022;2023-04-15T15:32:42;8.50;99.90
7814;DHT22;3952;48.364;16.022;2023-04-15T15:35:10;8.50;99.90
7814;DHT22;3952;48.364;16.022;2023-04-15T15:37:40;8.50;99.90
7814;DHT22;3952;48.364;16.022;2023-04-15T15:40:09;8.40;99.90
7814;DHT22;3952;48.364;16.022;2023-04-15T15:42:45;8.50;99.90
7814;DHT22;3952;48.364;16.022;2023-04-15T15:45:14;8.50;99.90
7814;DHT22;3952;48.364;16.022;2023-04-15T15:47:41;8.50;99.90
7814;DHT22;3952;48.364;16.022;2023-04-15T15:50:12;8.40;99.90
7814;DHT22;3952;48.364;16.022;2023-04-15T15:52:39;8.30;99.90
7814;DHT22;3952;48.364;16.022;2023-04-15T15:55:07;8.30;99.90
7814;DHT22;3952;48.364;16.022;2023-04-15T15:57:34;8.40;99.90
7814;DHT22;3952;48.364;16.022;2023-04-15T16:00:04;8.40;99.90
7814;DHT22;3952;48.364;16.022;2023-04-15T16:02:32;8.30;99.90
7814;DHT22;3952;48.364;16.022;2023-04-15T16:04:59;8.30;99.90
7814;DHT22;3952;48.364;16.022;2023-04-15T16:07:26;8.20;99.90
7814;DHT22;3952;48.364;16.022;2023-04-15T16:09:53;8.30;99.90
7814;DHT22;3952;48.364;16.022;2023-04-15T16:12:21;8.20;99.90